BQL weather

Boulia Airport
Queensland, Australia

Public forecast

Using degrees Celsius for public forecast. Weather courtesy of forecast.io.

METAR (pilot weather report)

Closest report is Longreach Airport, 243.8 nm (451.5 km) E. Retrieved 2019/04/19 16:00 UTC (28 minutes ago):

YLRE 191600Z AUTO 13008KT 9999 // NCD 17/10 Q1017

TAF (pilot weather forecast)

Closest forecast is Mount Isa Airport, 137.0 nm (253.7 km) N. Retrieved 2019/04/19 12:03 UTC (4 hours ago):

TAF TAF YBMA 191012Z 1912/1924 12007KT CAVOK